sensor_id;sensor_type;location;lat;lon;timestamp;P1;durP1;ratioP1;P2;durP2;ratioP2
64011;SDS011;50211;52.768;12.124;2023-07-02T00:01:40;6.70;;;4.00;;
64011;SDS011;50211;52.768;12.124;2023-07-02T00:04:06;7.20;;;4.60;;
64011;SDS011;50211;52.768;12.124;2023-07-02T00:06:33;7.93;;;4.55;;
64011;SDS011;50211;52.768;12.124;2023-07-02T00:09:05;7.70;;;4.25;;
64011;SDS011;50211;52.768;12.124;2023-07-02T00:11:31;10.13;;;4.78;;
64011;SDS011;50211;52.768;12.124;2023-07-02T00:13:56;9.15;;;4.88;;
64011;SDS011;50211;52.768;12.124;2023-07-02T00:16:22;8.80;;;4.82;;
64011;SDS011;50211;52.768;12.124;2023-07-02T00:18:47;10.27;;;5.80;;
64011;SDS011;50211;52.768;12.124;2023-07-02T00:21:17;7.70;;;5.85;;
64011;SDS011;50211;52.768;12.124;2023-07-02T00:23:46;11.43;;;6.30;;
64011;SDS011;50211;52.768;12.124;2023-07-02T00:26:12;9.23;;;6.07;;
64011;SDS011;50211;52.768;12.124;2023-07-02T00:28:39;13.32;;;6.15;;
64011;SDS011;50211;52.768;12.124;2023-07-02T00:31:04;7.93;;;6.07;;
64011;SDS011;50211;52.768;12.124;2023-07-02T00:33:31;9.95;;;6.30;;
64011;SDS011;50211;52.768;12.124;2023-07-02T00:35:57;7.43;;;5.78;;
64011;SDS011;50211;52.768;12.124;2023-07-02T00:38:22;11.48;;;5.47;;
64011;SDS011;50211;52.768;12.124;2023-07-02T00:40:48;10.02;;;5.38;;
64011;SDS011;50211;52.768;12.124;2023-07-02T00:43:14;10.07;;;6.20;;
64011;SDS011;50211;52.768;12.124;2023-07-02T00:45:39;9.30;;;5.93;;
64011;SDS011;50211;52.768;12.124;2023-07-02T00:48:05;10.25;;;5.90;;
64011;SDS011;50211;52.768;12.124;2023-07-02T00:50:31;9.65;;;6.30;;
64011;SDS011;50211;52.768;12.124;2023-07-02T00:52:57;9.55;;;5.25;;
64011;SDS011;50211;52.768;12.124;2023-07-02T00:55:23;6.13;;;5.00;;
64011;SDS011;50211;52.768;12.124;2023-07-02T00:57:49;12.65;;;5.40;;
64011;SDS011;50211;52.768;12.124;2023-07-02T01:00:15;9.57;;;5.45;;
64011;SDS011;50211;52.768;12.124;2023-07-02T01:02:41;9.45;;;5.32;;
64011;SDS011;50211;52.768;12.124;2023-07-02T01:05:15;7.75;;;5.40;;
64011;SDS011;50211;52.768;12.124;2023-07-02T01:07:41;10.18;;;5.00;;
64011;SDS011;50211;52.768;12.124;2023-07-02T01:10:07;7.28;;;5.22;;
64011;SDS011;50211;52.768;12.124;2023-07-02T01:12:33;8.85;;;4.95;;
64011;SDS011;50211;52.768;12.124;2023-07-02T01:15:00;8.80;;;5.45;;
64011;SDS011;50211;52.768;12.124;2023-07-02T01:17:29;8.40;;;5.20;;
64011;SDS011;50211;52.768;12.124;2023-07-02T01:20:04;8.73;;;5.82;;
64011;SDS011;50211;52.768;12.124;2023-07-02T01:22:33;8.45;;;6.15;;
64011;SDS011;50211;52.768;12.124;2023-07-02T01:24:59;9.60;;;6.70;;
64011;SDS011;50211;52.768;12.124;2023-07-02T01:27:27;9.18;;;6.40;;
64011;SDS011;50211;52.768;12.124;2023-07-02T01:29:54;9.95;;;5.43;;
64011;SDS011;50211;52.768;12.124;2023-07-02T01:32:20;11.07;;;6.35;;
64011;SDS011;50211;52.768;12.124;2023-07-02T01:34:46;11.57;;;6.50;;
64011;SDS011;50211;52.768;12.124;2023-07-02T01:37:13;14.02;;;6.70;;
64011;SDS011;50211;52.768;12.124;2023-07-02T01:39:39;11.07;;;6.95;;
64011;SDS011;50211;52.768;12.124;2023-07-02T01:42:12;12.15;;;6.40;;
64011;SDS011;50211;52.768;12.124;2023-07-02T01:44:42;10.60;;;5.60;;
64011;SDS011;50211;52.768;12.124;2023-07-02T01:47:08;10.68;;;5.97;;
64011;SDS011;50211;52.768;12.124;2023-07-02T01:49:34;12.15;;;6.20;;
64011;SDS011;50211;52.768;12.124;2023-07-02T01:52:01;8.65;;;5.57;;
64011;SDS011;50211;52.768;12.124;2023-07-02T01:54:27;10.15;;;5.50;;
64011;SDS011;50211;52.768;12.124;2023-07-02T01:56:56;6.95;;;5.20;;
64011;SDS011;50211;52.768;12.124;2023-07-02T01:59:21;9.63;;;5.95;;
64011;SDS011;50211;52.768;12.124;2023-07-02T02:01:47;10.05;;;5.30;;
64011;SDS011;50211;52.768;12.124;2023-07-02T02:04:13;10.77;;;5.25;;
64011;SDS011;50211;52.768;12.124;2023-07-02T02:06:39;10.45;;;5.18;;
64011;SDS011;50211;52.768;12.124;2023-07-02T02:09:05;9.98;;;5.75;;
64011;SDS011;50211;52.768;12.124;2023-07-02T02:11:32;8.60;;;5.35;;
64011;SDS011;50211;52.768;12.124;2023-07-02T02:13:58;12.23;;;4.82;;
64011;SDS011;50211;52.768;12.124;2023-07-02T02:16:26;7.90;;;4.88;;
64011;SDS011;50211;52.768;12.124;2023-07-02T02:18:52;6.22;;;4.72;;
64011;SDS011;50211;52.768;12.124;2023-07-02T02:21:18;11.75;;;4.95;;
64011;SDS011;50211;52.768;12.124;2023-07-02T02:23:44;9.80;;;4.43;;
64011;SDS011;50211;52.768;12.124;2023-07-02T02:26:09;10.23;;;4.40;;
64011;SDS011;50211;52.768;12.124;2023-07-02T02:28:35;6.40;;;4.72;;
64011;SDS011;50211;52.768;12.124;2023-07-02T02:31:01;5.75;;;4.18;;
64011;SDS011;50211;52.768;12.124;2023-07-02T02:33:27;7.22;;;4.45;;
64011;SDS011;50211;52.768;12.124;2023-07-02T02:35:52;6.15;;;4.60;;
64011;SDS011;50211;52.768;12.124;2023-07-02T02:38:18;6.55;;;4.45;;
64011;SDS011;50211;52.768;12.124;2023-07-02T02:40:43;6.63;;;4.38;;
64011;SDS011;50211;52.768;12.124;2023-07-02T02:43:09;6.43;;;4.55;;
64011;SDS011;50211;52.768;12.124;2023-07-02T02:45:34;6.43;;;3.95;;
64011;SDS011;50211;52.768;12.124;2023-07-02T02:48:00;5.43;;;4.03;;
64011;SDS011;50211;52.768;12.124;2023-07-02T02:50:25;16.45;;;4.60;;
64011;SDS011;50211;52.768;12.124;2023-07-02T02:52:51;12.38;;;4.72;;
64011;SDS011;50211;52.768;12.124;2023-07-02T02:55:17;9.98;;;4.65;;
64011;SDS011;50211;52.768;12.124;2023-07-02T02:57:43;7.95;;;4.65;;
64011;SDS011;50211;52.768;12.124;2023-07-02T03:00:09;9.27;;;4.82;;
64011;SDS011;50211;52.768;12.124;2023-07-02T03:02:35;13.50;;;4.85;;
64011;SDS011;50211;52.768;12.124;2023-07-02T03:05:01;8.70;;;4.70;;
64011;SDS011;50211;52.768;12.124;2023-07-02T03:07:27;8.85;;;5.00;;
64011;SDS011;50211;52.768;12.124;2023-07-02T03:09:53;8.30;;;4.97;;
64011;SDS011;50211;52.768;12.124;2023-07-02T03:12:18;9.95;;;5.15;;
64011;SDS011;50211;52.768;12.124;2023-07-02T03:14:44;19.40;;;5.57;;
64011;SDS011;50211;52.768;12.124;2023-07-02T03:17:09;8.98;;;5.03;;
64011;SDS011;50211;52.768;12.124;2023-07-02T03:19:35;10.73;;;5.13;;
64011;SDS011;50211;52.768;12.124;2023-07-02T03:22:00;10.70;;;6.30;;
64011;SDS011;50211;52.768;12.124;2023-07-02T03:24:26;11.25;;;5.65;;
64011;SDS011;50211;52.768;12.124;2023-07-02T03:26:51;8.27;;;5.57;;
64011;SDS011;50211;52.768;12.124;2023-07-02T03:29:17;8.48;;;5.35;;
64011;SDS011;50211;52.768;12.124;2023-07-02T03:31:45;11.27;;;6.00;;
64011;SDS011;50211;52.768;12.124;2023-07-02T03:34:11;10.07;;;6.07;;
64011;SDS011;50211;52.768;12.124;2023-07-02T03:36:37;10.43;;;5.82;;
64011;SDS011;50211;52.768;12.124;2023-07-02T03:39:03;11.77;;;5.82;;
64011;SDS011;50211;52.768;12.124;2023-07-02T03:41:29;10.80;;;5.88;;
64011;SDS011;50211;52.768;12.124;2023-07-02T03:43:55;11.63;;;5.65;;
64011;SDS011;50211;52.768;12.124;2023-07-02T03:46:21;12.68;;;6.18;;
64011;SDS011;50211;52.768;12.124;2023-07-02T03:48:46;9.35;;;5.57;;
64011;SDS011;50211;52.768;12.124;2023-07-02T03:51:12;9.93;;;5.90;;
64011;SDS011;50211;52.768;12.124;2023-07-02T03:53:39;9.88;;;6.13;;
64011;SDS011;50211;52.768;12.124;2023-07-02T03:56:07;6.97;;;4.68;;
64011;SDS011;50211;52.768;12.124;2023-07-02T03:58:33;8.18;;;5.30;;
64011;SDS011;50211;52.768;12.124;2023-07-02T04:00:58;8.57;;;4.60;;
64011;SDS011;50211;52.768;12.124;2023-07-02T04:03:24;11.90;;;4.90;;
64011;SDS011;50211;52.768;12.124;2023-07-02T04:05:50;7.43;;;4.40;;
64011;SDS011;50211;52.768;12.124;2023-07-02T04:08:15;12.07;;;4.45;;
64011;SDS011;50211;52.768;12.124;2023-07-02T04:10:41;11.77;;;5.03;;
64011;SDS011;50211;52.768;12.124;2023-07-02T04:13:07;9.95;;;4.78;;
64011;SDS011;50211;52.768;12.124;2023-07-02T04:15:32;7.68;;;3.95;;
64011;SDS011;50211;52.768;12.124;2023-07-02T04:17:58;6.60;;;4.20;;
64011;SDS011;50211;52.768;12.124;2023-07-02T04:20:24;11.30;;;4.53;;
64011;SDS011;50211;52.768;12.124;2023-07-02T04:22:50;13.68;;;5.30;;
64011;SDS011;50211;52.768;12.124;2023-07-02T04:25:16;5.40;;;3.92;;
64011;SDS011;50211;52.768;12.124;2023-07-02T04:27:42;8.15;;;3.92;;
64011;SDS011;50211;52.768;12.124;2023-07-02T04:30:08;10.20;;;4.40;;
64011;SDS011;50211;52.768;12.124;2023-07-02T04:32:35;12.77;;;3.85;;
64011;SDS011;50211;52.768;12.124;2023-07-02T04:35:01;6.10;;;4.05;;
64011;SDS011;50211;52.768;12.124;2023-07-02T04:37:26;7.10;;;3.65;;
64011;SDS011;50211;52.768;12.124;2023-07-02T04:39:55;9.30;;;4.30;;
64011;SDS011;50211;52.768;12.124;2023-07-02T04:42:22;5.57;;;3.60;;
64011;SDS011;50211;52.768;12.124;2023-07-02T04:44:52;6.95;;;3.40;;
64011;SDS011;50211;52.768;12.124;2023-07-02T04:47:20;11.32;;;4.47;;
64011;SDS011;50211;52.768;12.124;2023-07-02T04:49:46;7.20;;;3.67;;
64011;SDS011;50211;52.768;12.124;2023-07-02T04:52:11;5.13;;;3.45;;
64011;SDS011;50211;52.768;12.124;2023-07-02T04:54:37;7.72;;;3.38;;
64011;SDS011;50211;52.768;12.124;2023-07-02T04:57:02;7.78;;;3.97;;
64011;SDS011;50211;52.768;12.124;2023-07-02T04:59:28;5.22;;;3.55;;
64011;SDS011;50211;52.768;12.124;2023-07-02T05:01:54;8.10;;;3.63;;
64011;SDS011;50211;52.768;12.124;2023-07-02T05:04:19;10.15;;;4.05;;
64011;SDS011;50211;52.768;12.124;2023-07-02T05:06:45;6.68;;;4.22;;
64011;SDS011;50211;52.768;12.124;2023-07-02T05:09:10;7.28;;;3.05;;
64011;SDS011;50211;52.768;12.124;2023-07-02T05:11:36;6.30;;;3.30;;
64011;SDS011;50211;52.768;12.124;2023-07-02T05:14:01;8.07;;;3.50;;
64011;SDS011;50211;52.768;12.124;2023-07-02T05:16:27;5.43;;;3.65;;
64011;SDS011;50211;52.768;12.124;2023-07-02T05:18:52;9.38;;;3.38;;
64011;SDS011;50211;52.768;12.124;2023-07-02T05:21:18;6.53;;;3.20;;
64011;SDS011;50211;52.768;12.124;2023-07-02T05:23:44;8.50;;;3.80;;
64011;SDS011;50211;52.768;12.124;2023-07-02T05:26:09;6.55;;;3.30;;
64011;SDS011;50211;52.768;12.124;2023-07-02T05:28:35;4.10;;;2.72;;
64011;SDS011;50211;52.768;12.124;2023-07-02T05:31:00;6.93;;;3.22;;
64011;SDS011;50211;52.768;12.124;2023-07-02T05:33:26;4.75;;;3.20;;
64011;SDS011;50211;52.768;12.124;2023-07-02T05:35:51;6.18;;;2.70;;
64011;SDS011;50211;52.768;12.124;2023-07-02T05:38:17;4.10;;;2.50;;
64011;SDS011;50211;52.768;12.124;2023-07-02T05:40:43;5.97;;;2.83;;
64011;SDS011;50211;52.768;12.124;2023-07-02T05:43:09;6.43;;;2.90;;
64011;SDS011;50211;52.768;12.124;2023-07-02T05:45:35;12.45;;;3.33;;
64011;SDS011;50211;52.768;12.124;2023-07-02T05:48:00;6.53;;;2.72;;
64011;SDS011;50211;52.768;12.124;2023-07-02T05:50:26;10.95;;;2.83;;
64011;SDS011;50211;52.768;12.124;2023-07-02T05:52:51;5.18;;;2.95;;
64011;SDS011;50211;52.768;12.124;2023-07-02T05:55:17;4.20;;;2.67;;
64011;SDS011;50211;52.768;12.124;2023-07-02T05:57:42;6.50;;;3.13;;
64011;SDS011;50211;52.768;12.124;2023-07-02T06:00:08;5.63;;;2.85;;
64011;SDS011;50211;52.768;12.124;2023-07-02T06:02:34;7.30;;;3.17;;
64011;SDS011;50211;52.768;12.124;2023-07-02T06:04:59;13.70;;;3.00;;
64011;SDS011;50211;52.768;12.124;2023-07-02T06:07:26;9.05;;;2.83;;
64011;SDS011;50211;52.768;12.124;2023-07-02T06:09:52;5.80;;;2.95;;
64011;SDS011;50211;52.768;12.124;2023-07-02T06:12:18;10.65;;;3.30;;
64011;SDS011;50211;52.768;12.124;2023-07-02T06:14:45;10.18;;;3.17;;
64011;SDS011;50211;52.768;12.124;2023-07-02T06:17:11;7.00;;;3.42;;
64011;SDS011;50211;52.768;12.124;2023-07-02T06:19:37;7.82;;;3.00;;
64011;SDS011;50211;52.768;12.124;2023-07-02T06:22:03;5.82;;;2.97;;
64011;SDS011;50211;52.768;12.124;2023-07-02T06:24:29;7.13;;;3.40;;
64011;SDS011;50211;52.768;12.124;2023-07-02T06:26:54;7.22;;;3.20;;
64011;SDS011;50211;52.768;12.124;2023-07-02T06:29:21;11.48;;;3.45;;
64011;SDS011;50211;52.768;12.124;2023-07-02T06:31:50;9.27;;;3.55;;
64011;SDS011;50211;52.768;12.124;2023-07-02T06:34:16;12.15;;;3.72;;
64011;SDS011;50211;52.768;12.124;2023-07-02T06:36:41;7.30;;;3.33;;
64011;SDS011;50211;52.768;12.124;2023-07-02T06:39:07;8.93;;;4.40;;
64011;SDS011;50211;52.768;12.124;2023-07-02T06:41:34;12.13;;;3.53;;
64011;SDS011;50211;52.768;12.124;2023-07-02T06:44:00;7.65;;;3.25;;
64011;SDS011;50211;52.768;12.124;2023-07-02T06:46:25;11.00;;;3.53;;
64011;SDS011;50211;52.768;12.124;2023-07-02T06:48:51;12.30;;;3.40;;
64011;SDS011;50211;52.768;12.124;2023-07-02T06:51:16;7.47;;;3.30;;
64011;SDS011;50211;52.768;12.124;2023-07-02T06:53:44;6.80;;;3.75;;
64011;SDS011;50211;52.768;12.124;2023-07-02T06:56:09;8.88;;;3.45;;
64011;SDS011;50211;52.768;12.124;2023-07-02T06:58:35;9.85;;;3.47;;
64011;SDS011;50211;52.768;12.124;2023-07-02T07:01:01;6.43;;;3.03;;
64011;SDS011;50211;52.768;12.124;2023-07-02T07:03:27;15.45;;;3.28;;
64011;SDS011;50211;52.768;12.124;2023-07-02T07:05:53;10.25;;;2.60;;
64011;SDS011;50211;52.768;12.124;2023-07-02T07:08:19;7.13;;;3.00;;
64011;SDS011;50211;52.768;12.124;2023-07-02T07:10:44;8.77;;;3.40;;
64011;SDS011;50211;52.768;12.124;2023-07-02T07:13:10;8.52;;;2.95;;
64011;SDS011;50211;52.768;12.124;2023-07-02T07:15:36;5.60;;;3.33;;
64011;SDS011;50211;52.768;12.124;2023-07-02T07:18:02;6.82;;;3.30;;
64011;SDS011;50211;52.768;12.124;2023-07-02T07:20:28;7.18;;;3.30;;
64011;SDS011;50211;52.768;12.124;2023-07-02T07:22:57;7.85;;;3.85;;
64011;SDS011;50211;52.768;12.124;2023-07-02T07:25:22;11.73;;;3.38;;
64011;SDS011;50211;52.768;12.124;2023-07-02T07:27:48;8.18;;;3.65;;
64011;SDS011;50211;52.768;12.124;2023-07-02T07:30:14;11.07;;;3.92;;
64011;SDS011;50211;52.768;12.124;2023-07-02T07:32:40;9.55;;;3.70;;
64011;SDS011;50211;52.768;12.124;2023-07-02T07:35:06;9.93;;;3.97;;
64011;SDS011;50211;52.768;12.124;2023-07-02T07:37:32;9.10;;;3.58;;
64011;SDS011;50211;52.768;12.124;2023-07-02T07:39:58;9.32;;;3.13;;
64011;SDS011;50211;52.768;12.124;2023-07-02T07:42:23;9.20;;;4.07;;
64011;SDS011;50211;52.768;12.124;2023-07-02T07:44:49;10.18;;;3.33;;
64011;SDS011;50211;52.768;12.124;2023-07-02T07:47:14;11.02;;;3.35;;
64011;SDS011;50211;52.768;12.124;2023-07-02T07:49:40;10.38;;;3.95;;
64011;SDS011;50211;52.768;12.124;2023-07-02T07:52:06;10.73;;;3.17;;
64011;SDS011;50211;52.768;12.124;2023-07-02T07:54:32;13.43;;;4.28;;
64011;SDS011;50211;52.768;12.124;2023-07-02T07:57:00;11.05;;;3.20;;
64011;SDS011;50211;52.768;12.124;2023-07-02T07:59:25;15.60;;;3.83;;
64011;SDS011;50211;52.768;12.124;2023-07-02T08:01:51;16.35;;;3.72;;
64011;SDS011;50211;52.768;12.124;2023-07-02T08:04:16;10.25;;;3.70;;
64011;SDS011;50211;52.768;12.124;2023-07-02T08:06:42;10.05;;;3.67;;
64011;SDS011;50211;52.768;12.124;2023-07-02T08:09:07;10.10;;;3.90;;
64011;SDS011;50211;52.768;12.124;2023-07-02T08:11:34;13.18;;;3.97;;
64011;SDS011;50211;52.768;12.124;2023-07-02T08:13:59;9.85;;;3.70;;
64011;SDS011;50211;52.768;12.124;2023-07-02T08:16:25;8.45;;;3.88;;
64011;SDS011;50211;52.768;12.124;2023-07-02T08:18:50;14.95;;;4.13;;
64011;SDS011;50211;52.768;12.124;2023-07-02T08:21:16;8.15;;;3.63;;
64011;SDS011;50211;52.768;12.124;2023-07-02T08:23:42;16.42;;;4.53;;
64011;SDS011;50211;52.768;12.124;2023-07-02T08:26:08;11.52;;;3.88;;
64011;SDS011;50211;52.768;12.124;2023-07-02T08:28:35;13.07;;;4.15;;
64011;SDS011;50211;52.768;12.124;2023-07-02T08:31:01;13.18;;;4.00;;
64011;SDS011;50211;52.768;12.124;2023-07-02T08:33:27;10.43;;;3.60;;
64011;SDS011;50211;52.768;12.124;2023-07-02T08:35:52;15.90;;;4.10;;
64011;SDS011;50211;52.768;12.124;2023-07-02T08:38:17;14.90;;;3.97;;
64011;SDS011;50211;52.768;12.124;2023-07-02T08:40:43;12.73;;;3.78;;
64011;SDS011;50211;52.768;12.124;2023-07-02T08:43:09;10.35;;;3.83;;
64011;SDS011;50211;52.768;12.124;2023-07-02T08:45:34;9.93;;;3.92;;
64011;SDS011;50211;52.768;12.124;2023-07-02T08:48:01;11.07;;;4.05;;
64011;SDS011;50211;52.768;12.124;2023-07-02T08:50:27;13.07;;;4.15;;
64011;SDS011;50211;52.768;12.124;2023-07-02T08:52:53;10.65;;;4.15;;
64011;SDS011;50211;52.768;12.124;2023-07-02T08:55:19;14.85;;;4.07;;
64011;SDS011;50211;52.768;12.124;2023-07-02T08:57:49;12.25;;;4.45;;
64011;SDS011;50211;52.768;12.124;2023-07-02T09:00:17;21.70;;;5.88;;
64011;SDS011;50211;52.768;12.124;2023-07-02T09:02:43;10.23;;;5.35;;
64011;SDS011;50211;52.768;12.124;2023-07-02T09:05:10;16.25;;;4.38;;
64011;SDS011;50211;52.768;12.124;2023-07-02T09:07:48;17.50;;;7.90;;
64011;SDS011;50211;52.768;12.124;2023-07-02T09:10:27;17.33;;;4.55;;
64011;SDS011;50211;52.768;12.124;2023-07-02T09:13:04;14.13;;;4.15;;
64011;SDS011;50211;52.768;12.124;2023-07-02T09:15:37;18.77;;;4.35;;
64011;SDS011;50211;52.768;12.124;2023-07-02T09:18:13;12.48;;;4.15;;
64011;SDS011;50211;52.768;12.124;2023-07-02T09:20:46;19.52;;;5.30;;
64011;SDS011;50211;52.768;12.124;2023-07-02T09:23:15;8.48;;;4.80;;
64011;SDS011;50211;52.768;12.124;2023-07-02T09:25:40;11.00;;;4.53;;
64011;SDS011;50211;52.768;12.124;2023-07-02T09:28:21;19.80;;;4.78;;
64011;SDS011;50211;52.768;12.124;2023-07-02T09:30:50;16.45;;;5.38;;
64011;SDS011;50211;52.768;12.124;2023-07-02T09:33:21;14.15;;;5.28;;
64011;SDS011;50211;52.768;12.124;2023-07-02T09:35:48;14.20;;;5.82;;
64011;SDS011;50211;52.768;12.124;2023-07-02T09:38:15;12.00;;;4.90;;
64011;SDS011;50211;52.768;12.124;2023-07-02T09:40:47;21.35;;;5.85;;
64011;SDS011;50211;52.768;12.124;2023-07-02T09:43:15;14.80;;;5.60;;
64011;SDS011;50211;52.768;12.124;2023-07-02T09:45:42;15.25;;;5.13;;
64011;SDS011;50211;52.768;12.124;2023-07-02T09:48:09;15.38;;;4.85;;
64011;SDS011;50211;52.768;12.124;2023-07-02T09:50:40;20.90;;;5.85;;
64011;SDS011;50211;52.768;12.124;2023-07-02T09:53:08;18.90;;;5.15;;
64011;SDS011;50211;52.768;12.124;2023-07-02T09:55:34;15.13;;;5.63;;
64011;SDS011;50211;52.768;12.124;2023-07-02T09:57:59;12.07;;;5.00;;
64011;SDS011;50211;52.768;12.124;2023-07-02T10:00:26;21.60;;;5.43;;
64011;SDS011;50211;52.768;12.124;2023-07-02T10:02:52;16.60;;;6.00;;
64011;SDS011;50211;52.768;12.124;2023-07-02T10:05:30;15.65;;;5.30;;
64011;SDS011;50211;52.768;12.124;2023-07-02T10:07:58;23.55;;;5.88;;
64011;SDS011;50211;52.768;12.124;2023-07-02T10:10:37;14.15;;;5.57;;
64011;SDS011;50211;52.768;12.124;2023-07-02T10:13:02;11.27;;;5.10;;
64011;SDS011;50211;52.768;12.124;2023-07-02T10:15:28;16.67;;;6.18;;
64011;SDS011;50211;52.768;12.124;2023-07-02T10:17:56;19.08;;;5.18;;
64011;SDS011;50211;52.768;12.124;2023-07-02T10:20:30;22.80;;;6.03;;
64011;SDS011;50211;52.768;12.124;2023-07-02T10:22:58;24.60;;;5.55;;
64011;SDS011;50211;52.768;12.124;2023-07-02T10:25:24;13.35;;;5.00;;
64011;SDS011;50211;52.768;12.124;2023-07-02T10:27:51;13.20;;;4.32;;
64011;SDS011;50211;52.768;12.124;2023-07-02T10:30:17;12.40;;;4.78;;
64011;SDS011;50211;52.768;12.124;2023-07-02T10:32:42;17.92;;;5.35;;
64011;SDS011;50211;52.768;12.124;2023-07-02T10:35:14;9.63;;;5.25;;
64011;SDS011;50211;52.768;12.124;2023-07-02T10:37:44;15.35;;;5.07;;
64011;SDS011;50211;52.768;12.124;2023-07-02T10:40:10;18.77;;;6.15;;
64011;SDS011;50211;52.768;12.124;2023-07-02T10:42:49;10.73;;;4.55;;
64011;SDS011;50211;52.768;12.124;2023-07-02T10:45:16;22.83;;;6.13;;
64011;SDS011;50211;52.768;12.124;2023-07-02T10:47:43;13.02;;;4.88;;
64011;SDS011;50211;52.768;12.124;2023-07-02T10:50:18;23.40;;;6.15;;
64011;SDS011;50211;52.768;12.124;2023-07-02T10:52:45;20.30;;;5.18;;
64011;SDS011;50211;52.768;12.124;2023-07-02T10:55:22;17.42;;;4.88;;
64011;SDS011;50211;52.768;12.124;2023-07-02T10:57:50;19.98;;;5.25;;
64011;SDS011;50211;52.768;12.124;2023-07-02T11:00:26;19.20;;;5.50;;
64011;SDS011;50211;52.768;12.124;2023-07-02T11:02:52;18.70;;;5.18;;
64011;SDS011;50211;52.768;12.124;2023-07-02T11:05:17;16.60;;;5.28;;
64011;SDS011;50211;52.768;12.124;2023-07-02T11:07:43;15.27;;;5.40;;
64011;SDS011;50211;52.768;12.124;2023-07-02T11:10:09;17.25;;;5.50;;
64011;SDS011;50211;52.768;12.124;2023-07-02T11:12:41;13.32;;;5.00;;
64011;SDS011;50211;52.768;12.124;2023-07-02T11:15:08;14.65;;;5.38;;
64011;SDS011;50211;52.768;12.124;2023-07-02T11:17:33;20.80;;;5.47;;
64011;SDS011;50211;52.768;12.124;2023-07-02T11:19:59;16.90;;;5.28;;
64011;SDS011;50211;52.768;12.124;2023-07-02T11:22:31;15.52;;;5.82;;
64011;SDS011;50211;52.768;12.124;2023-07-02T11:27:36;11.00;;;4.85;;
64011;SDS011;50211;52.768;12.124;2023-07-02T11:30:01;13.35;;;5.07;;
64011;SDS011;50211;52.768;12.124;2023-07-02T11:32:27;14.77;;;5.70;;
64011;SDS011;50211;52.768;12.124;2023-07-02T11:34:53;19.55;;;5.47;;
64011;SDS011;50211;52.768;12.124;2023-07-02T11:37:19;14.63;;;5.45;;
64011;SDS011;50211;52.768;12.124;2023-07-02T11:39:45;13.25;;;5.60;;
64011;SDS011;50211;52.768;12.124;2023-07-02T11:42:10;10.95;;;4.88;;
64011;SDS011;50211;52.768;12.124;2023-07-02T11:44:36;11.73;;;4.57;;
64011;SDS011;50211;52.768;12.124;2023-07-02T11:47:01;16.08;;;5.50;;
64011;SDS011;50211;52.768;12.124;2023-07-02T11:49:27;20.30;;;5.93;;
64011;SDS011;50211;52.768;12.124;2023-07-02T11:51:53;11.93;;;4.93;;
64011;SDS011;50211;52.768;12.124;2023-07-02T11:54:18;14.57;;;5.35;;
64011;SDS011;50211;52.768;12.124;2023-07-02T11:56:44;24.13;;;5.63;;
64011;SDS011;50211;52.768;12.124;2023-07-02T11:59:10;17.38;;;5.35;;
64011;SDS011;50211;52.768;12.124;2023-07-02T12:01:36;11.98;;;4.70;;
64011;SDS011;50211;52.768;12.124;2023-07-02T12:04:01;15.98;;;5.28;;
64011;SDS011;50211;52.768;12.124;2023-07-02T12:06:27;12.43;;;5.07;;
64011;SDS011;50211;52.768;12.124;2023-07-02T12:08:52;11.15;;;5.45;;
64011;SDS011;50211;52.768;12.124;2023-07-02T12:11:18;13.65;;;5.32;;
64011;SDS011;50211;52.768;12.124;2023-07-02T12:13:43;12.68;;;4.90;;
64011;SDS011;50211;52.768;12.124;2023-07-02T12:16:09;13.45;;;4.93;;
64011;SDS011;50211;52.768;12.124;2023-07-02T12:18:34;15.00;;;5.15;;
64011;SDS011;50211;52.768;12.124;2023-07-02T12:21:00;13.38;;;5.00;;
64011;SDS011;50211;52.768;12.124;2023-07-02T12:23:25;11.25;;;4.75;;
64011;SDS011;50211;52.768;12.124;2023-07-02T12:25:51;12.25;;;4.88;;
64011;SDS011;50211;52.768;12.124;2023-07-02T12:28:16;13.00;;;4.25;;
64011;SDS011;50211;52.768;12.124;2023-07-02T12:30:42;11.18;;;5.05;;
64011;SDS011;50211;52.768;12.124;2023-07-02T12:33:07;11.82;;;4.55;;
64011;SDS011;50211;52.768;12.124;2023-07-02T12:35:33;12.02;;;5.10;;
64011;SDS011;50211;52.768;12.124;2023-07-02T12:37:59;22.02;;;5.95;;
64011;SDS011;50211;52.768;12.124;2023-07-02T12:40:25;18.60;;;5.72;;
64011;SDS011;50211;52.768;12.124;2023-07-02T12:42:50;13.35;;;5.35;;
64011;SDS011;50211;52.768;12.124;2023-07-02T12:45:16;15.32;;;5.30;;
64011;SDS011;50211;52.768;12.124;2023-07-02T12:47:42;14.77;;;5.40;;
64011;SDS011;50211;52.768;12.124;2023-07-02T12:50:08;16.17;;;5.20;;
64011;SDS011;50211;52.768;12.124;2023-07-02T12:52:34;14.43;;;5.43;;
64011;SDS011;50211;52.768;12.124;2023-07-02T12:55:00;10.43;;;5.13;;
64011;SDS011;50211;52.768;12.124;2023-07-02T12:57:26;13.23;;;4.90;;
64011;SDS011;50211;52.768;12.124;2023-07-02T12:59:53;14.63;;;4.75;;
64011;SDS011;50211;52.768;12.124;2023-07-02T13:02:18;10.85;;;5.22;;
64011;SDS011;50211;52.768;12.124;2023-07-02T13:04:44;11.63;;;4.70;;
64011;SDS011;50211;52.768;12.124;2023-07-02T13:07:10;12.38;;;4.80;;
64011;SDS011;50211;52.768;12.124;2023-07-02T13:09:35;10.55;;;4.38;;
64011;SDS011;50211;52.768;12.124;2023-07-02T13:12:01;15.40;;;5.15;;
64011;SDS011;50211;52.768;12.124;2023-07-02T13:14:26;13.27;;;5.18;;
64011;SDS011;50211;52.768;12.124;2023-07-02T13:16:52;11.35;;;5.00;;
64011;SDS011;50211;52.768;12.124;2023-07-02T13:19:17;15.95;;;5.07;;
64011;SDS011;50211;52.768;12.124;2023-07-02T13:21:43;14.15;;;5.68;;
64011;SDS011;50211;52.768;12.124;2023-07-02T13:24:08;19.52;;;5.57;;
64011;SDS011;50211;52.768;12.124;2023-07-02T13:26:36;14.43;;;4.88;;
64011;SDS011;50211;52.768;12.124;2023-07-02T13:29:01;17.83;;;4.85;;
64011;SDS011;50211;52.768;12.124;2023-07-02T13:31:27;20.40;;;5.15;;
64011;SDS011;50211;52.768;12.124;2023-07-02T13:33:52;15.93;;;5.35;;
64011;SDS011;50211;52.768;12.124;2023-07-02T13:36:18;15.82;;;4.93;;
64011;SDS011;50211;52.768;12.124;2023-07-02T13:38:43;14.90;;;5.00;;
64011;SDS011;50211;52.768;12.124;2023-07-02T13:41:09;14.23;;;5.00;;
64011;SDS011;50211;52.768;12.124;2023-07-02T13:43:34;15.90;;;4.80;;
64011;SDS011;50211;52.768;12.124;2023-07-02T13:46:00;14.30;;;4.35;;
64011;SDS011;50211;52.768;12.124;2023-07-02T13:48:25;14.20;;;5.25;;
64011;SDS011;50211;52.768;12.124;2023-07-02T13:50:51;15.75;;;5.30;;
64011;SDS011;50211;52.768;12.124;2023-07-02T13:53:16;11.80;;;4.78;;
64011;SDS011;50211;52.768;12.124;2023-07-02T13:55:42;13.32;;;5.30;;
64011;SDS011;50211;52.768;12.124;2023-07-02T13:58:08;14.75;;;4.63;;
64011;SDS011;50211;52.768;12.124;2023-07-02T14:00:33;17.45;;;4.57;;
64011;SDS011;50211;52.768;12.124;2023-07-02T14:02:59;11.05;;;4.43;;
64011;SDS011;50211;52.768;12.124;2023-07-02T14:05:24;15.75;;;4.40;;
64011;SDS011;50211;52.768;12.124;2023-07-02T14:07:50;12.50;;;4.85;;
64011;SDS011;50211;52.768;12.124;2023-07-02T14:10:15;9.52;;;4.95;;
64011;SDS011;50211;52.768;12.124;2023-07-02T14:12:41;9.63;;;4.55;;
64011;SDS011;50211;52.768;12.124;2023-07-02T14:15:07;12.65;;;4.63;;
64011;SDS011;50211;52.768;12.124;2023-07-02T14:17:34;10.18;;;4.47;;
64011;SDS011;50211;52.768;12.124;2023-07-02T14:20:00;17.67;;;5.00;;
64011;SDS011;50211;52.768;12.124;2023-07-02T14:22:26;9.98;;;4.72;;
64011;SDS011;50211;52.768;12.124;2023-07-02T14:24:52;11.55;;;4.38;;